Time;durP1;ratioP1;P1;durP2;ratioP2;P2;SDS_P1;SDS_P2;PMS_P1;PMS_P2;Temp;Humidity;BMP_temperature;BMP_pressure;BME280_temperature;BME280_humidity;BME280_pressure;Samples;Min_cycle;Max_cycle;Signal;HPM_P1;HPM_P2
2023/04/29 00:00:17;;;;;;;;;3.00;3.00;;;;;;;;5061769;28;61827;-84
2023/04/29 00:02:42;;;;;;;;;4.00;3.00;;;;;;;;5055771;28;62019;-83
2023/04/29 00:05:08;;;;;;;;;4.00;3.00;;;;;;;;5061822;28;61710;-84
2023/04/29 00:07:33;;;;;;;;;3.25;3.25;;;;;;;;5060506;28;62086;-82
2023/04/29 00:09:59;;;;;;;;;4.75;4.75;;;;;;;;5062017;28;62831;-84
2023/04/29 00:12:24;;;;;;;;;3.50;2.50;;;;;;;;5060684;28;61854;-84
2023/04/29 00:14:50;;;;;;;;;2.25;2.25;;;;;;;;5061685;28;61995;-84
2023/04/29 00:17:16;;;;;;;;;6.50;3.75;;;;;;;;5048702;28;61668;-83
2023/04/29 00:19:42;;;;;;;;;3.00;3.00;;;;;;;;5041811;28;61870;-84
2023/04/29 00:22:08;;;;;;;;;4.00;4.00;;;;;;;;5059852;28;61844;-83
2023/04/29 00:24:33;;;;;;;;;4.00;3.50;;;;;;;;5059535;28;63636;-84
2023/04/29 00:26:58;;;;;;;;;4.25;3.25;;;;;;;;5061899;28;62277;-83
2023/04/29 00:29:23;;;;;;;;;3.25;3.00;;;;;;;;5061120;28;61982;-84
2023/04/29 00:31:49;;;;;;;;;4.00;3.00;;;;;;;;5062002;28;62168;-83
2023/04/29 00:34:14;;;;;;;;;4.00;4.00;;;;;;;;5061472;28;62051;-84
2023/04/29 00:36:39;;;;;;;;;4.75;4.75;;;;;;;;5061352;28;61972;-83
2023/04/29 00:39:05;;;;;;;;;4.50;3.75;;;;;;;;5061885;28;61969;-84
2023/04/29 00:41:30;;;;;;;;;4.50;4.50;;;;;;;;5080121;28;61829;-84
2023/04/29 00:43:56;;;;;;;;;4.75;4.75;;;;;;;;5064831;28;62159;-83
2023/04/29 00:46:21;;;;;;;;;6.50;4.00;;;;;;;;5063906;28;61799;-84
2023/04/29 00:48:46;;;;;;;;;5.50;5.00;;;;;;;;5056284;28;62055;-84
2023/04/29 00:51:12;;;;;;;;;4.00;4.00;;;;;;;;5045168;28;61817;-83
2023/04/29 00:53:38;;;;;;;;;5.50;5.00;;;;;;;;5042595;28;63679;-84
2023/04/29 00:56:04;;;;;;;;;4.75;4.00;;;;;;;;5058700;28;61791;-83
2023/04/29 00:58:32;;;;;;;;;9.75;4.75;;;;;;;;5063590;28;62084;-84
2023/04/29 01:01:01;;;;;;;;;10.50;7.75;;;;;;;;5065354;28;61894;-84
2023/04/29 01:03:27;;;;;;;;;4.50;3.00;;;;;;;;5064575;28;61932;-84
2023/04/29 01:06:00;;;;;;;;;4.25;4.25;;;;;;;;5064627;28;61715;-83
2023/04/29 01:08:26;;;;;;;;;3.25;3.00;;;;;;;;5065109;28;61963;-84
2023/04/29 01:11:00;;;;;;;;;7.50;5.00;;;;;;;;5046000;28;62066;-83
2023/04/29 01:13:48;;;;;;;;;6.00;5.00;;;;;;;;5058517;28;62915;-84
2023/04/29 01:16:16;;;;;;;;;5.50;5.00;;;;;;;;5053931;28;61804;-84
2023/04/29 01:18:45;;;;;;;;;5.00;4.00;;;;;;;;5064587;28;62088;-84
2023/04/29 01:21:10;;;;;;;;;5.50;3.00;;;;;;;;5064901;28;61844;-84
2023/04/29 01:23:35;;;;;;;;;5.50;4.75;;;;;;;;5063202;28;62866;-84
2023/04/29 01:26:00;;;;;;;;;4.75;4.75;;;;;;;;5064612;28;61801;-84
2023/04/29 01:28:33;;;;;;;;;7.00;5.50;;;;;;;;5064436;28;61957;-83
2023/04/29 01:31:05;;;;;;;;;8.00;5.25;;;;;;;;5064920;28;61730;-84
2023/04/29 01:33:49;;;;;;;;;8.00;6.75;;;;;;;;5064123;28;63204;-83
2023/04/29 01:36:15;;;;;;;;;3.50;3.50;;;;;;;;5064286;28;61801;-84
2023/04/29 01:38:46;;;;;;;;;6.25;5.00;;;;;;;;5064369;28;62016;-83
2023/04/29 01:41:33;;;;;;;;;6.00;6.00;;;;;;;;5064698;28;61706;-83
2023/04/29 01:44:01;;;;;;;;;4.00;4.00;;;;;;;;5063824;28;61933;-84
2023/04/29 01:46:26;;;;;;;;;5.25;5.25;;;;;;;;5064318;28;62091;-84
2023/04/29 01:48:53;;;;;;;;;3.00;3.00;;;;;;;;5063985;28;62005;-83
2023/04/29 01:51:18;;;;;;;;;9.50;7.50;;;;;;;;5062453;28;61872;-84
2023/04/29 01:53:43;;;;;;;;;5.50;5.50;;;;;;;;5063069;28;63140;-84
2023/04/29 01:56:08;;;;;;;;;5.00;5.00;;;;;;;;5062839;28;61819;-83
2023/04/29 01:58:34;;;;;;;;;6.25;6.25;;;;;;;;5063995;28;62436;-84
2023/04/29 02:00:59;;;;;;;;;5.00;5.00;;;;;;;;5062783;28;62286;-84
2023/04/29 02:03:24;;;;;;;;;5.00;5.00;;;;;;;;5062086;28;63645;-83
2023/04/29 02:05:50;;;;;;;;;11.00;6.00;;;;;;;;5062604;28;61814;-84
2023/04/29 02:08:18;;;;;;;;;9.50;7.00;;;;;;;;5062946;28;62506;-84
2023/04/29 02:10:56;;;;;;;;;6.50;6.50;;;;;;;;5047711;28;61692;-84
2023/04/29 02:13:21;;;;;;;;;8.75;6.00;;;;;;;;5041904;28;65025;-84
2023/04/29 02:15:46;;;;;;;;;5.50;5.50;;;;;;;;5059688;28;62098;-83
2023/04/29 02:18:11;;;;;;;;;9.00;8.25;;;;;;;;5063716;28;61940;-84
2023/04/29 02:20:37;;;;;;;;;9.50;9.25;;;;;;;;5063994;28;62098;-84
2023/04/29 02:23:02;;;;;;;;;20.50;17.75;;;;;;;;5052190;28;63599;-84
2023/04/29 02:25:27;;;;;;;;;40.25;33.50;;;;;;;;5063907;28;62003;-84
2023/04/29 02:27:52;;;;;;;;;41.75;35.00;;;;;;;;5061411;28;62453;-83
2023/04/29 02:30:17;;;;;;;;;34.00;29.75;;;;;;;;5063877;28;62016;-84
2023/04/29 02:32:43;;;;;;;;;28.00;23.50;;;;;;;;5062779;28;61927;-84
2023/04/29 02:35:08;;;;;;;;;24.50;20.75;;;;;;;;5063434;28;62103;-84
2023/04/29 02:37:33;;;;;;;;;21.75;18.50;;;;;;;;5063813;28;61802;-83
2023/04/29 02:39:58;;;;;;;;;23.75;21.00;;;;;;;;5078952;28;62098;-84
2023/04/29 02:42:24;;;;;;;;;20.00;16.50;;;;;;;;5078205;28;63877;-84
2023/04/29 02:44:49;;;;;;;;;24.00;20.50;;;;;;;;5063894;28;62042;-84
2023/04/29 02:47:14;;;;;;;;;24.50;17.00;;;;;;;;5061803;28;61734;-84
2023/04/29 02:49:39;;;;;;;;;20.25;18.50;;;;;;;;5079511;28;62105;-84
2023/04/29 02:52:05;;;;;;;;;16.75;14.25;;;;;;;;5062226;28;61943;-83
2023/04/29 02:54:30;;;;;;;;;15.50;15.50;;;;;;;;5063408;28;61754;-84
2023/04/29 02:56:56;;;;;;;;;13.25;13.00;;;;;;;;5063266;28;61917;-84
2023/04/29 02:59:21;;;;;;;;;14.50;12.75;;;;;;;;5063262;28;62093;-84
2023/04/29 03:01:47;;;;;;;;;11.75;11.75;;;;;;;;5062621;28;61936;-84
2023/04/29 03:04:12;;;;;;;;;16.75;11.25;;;;;;;;5077379;28;61794;-84
2023/04/29 03:06:37;;;;;;;;;14.00;12.00;;;;;;;;5063411;28;61908;-84
2023/04/29 03:09:03;;;;;;;;;13.75;11.75;;;;;;;;5059374;28;61762;-84
2023/04/29 03:11:28;;;;;;;;;13.75;11.25;;;;;;;;5041885;28;63235;-84
2023/04/29 03:13:54;;;;;;;;;13.00;10.50;;;;;;;;5044399;28;61900;-83
2023/04/29 03:16:20;;;;;;;;;10.25;9.00;;;;;;;;5062586;28;61759;-84
2023/04/29 03:18:45;;;;;;;;;13.50;10.00;;;;;;;;5063320;28;62731;-84
2023/04/29 03:21:11;;;;;;;;;8.50;7.25;;;;;;;;5050129;28;62683;-84
2023/04/29 03:23:38;;;;;;;;;12.75;8.00;;;;;;;;5049909;28;61929;-84
2023/04/29 03:26:03;;;;;;;;;6.00;6.00;;;;;;;;5061712;28;62309;-84
2023/04/29 03:28:28;;;;;;;;;11.50;7.00;;;;;;;;5061134;28;62237;-83
2023/04/29 03:30:55;;;;;;;;;12.25;6.25;;;;;;;;5060604;28;65032;-84
2023/04/29 03:33:20;;;;;;;;;9.75;7.50;;;;;;;;5061323;28;61825;-84
2023/04/29 03:35:45;;;;;;;;;10.00;7.25;;;;;;;;5062705;28;62034;-84
2023/04/29 03:38:11;;;;;;;;;6.25;6.25;;;;;;;;5059289;28;61939;-84
2023/04/29 03:40:36;;;;;;;;;9.00;9.00;;;;;;;;5077101;28;64835;-83
2023/04/29 03:43:02;;;;;;;;;11.25;6.75;;;;;;;;5049964;28;61945;-84
2023/04/29 03:45:27;;;;;;;;;12.00;8.50;;;;;;;;5040719;28;62085;-84
2023/04/29 03:47:53;;;;;;;;;7.25;6.25;;;;;;;;5042680;28;61886;-83
2023/04/29 03:50:18;;;;;;;;;8.25;8.25;;;;;;;;5041798;28;61985;-84
2023/04/29 03:52:44;;;;;;;;;7.00;7.00;;;;;;;;5041819;28;61934;-84
2023/04/29 03:55:10;;;;;;;;;9.25;7.00;;;;;;;;5042464;28;61924;-84
2023/04/29 03:57:36;;;;;;;;;11.00;9.00;;;;;;;;5042239;28;62002;-84
2023/04/29 04:00:01;;;;;;;;;10.75;7.00;;;;;;;;5041044;28;62859;-84
2023/04/29 04:02:27;;;;;;;;;12.50;8.00;;;;;;;;5040953;28;62101;-85
2023/04/29 04:04:53;;;;;;;;;11.00;7.00;;;;;;;;5042150;28;61818;-84
2023/04/29 04:07:19;;;;;;;;;10.50;8.50;;;;;;;;5042626;28;62048;-84
2023/04/29 04:09:44;;;;;;;;;15.50;12.00;;;;;;;;5048261;28;64855;-84
2023/04/29 04:12:10;;;;;;;;;7.25;7.00;;;;;;;;5062152;28;61722;-84
2023/04/29 04:14:35;;;;;;;;;13.00;9.75;;;;;;;;5061279;28;61792;-84
2023/04/29 04:17:00;;;;;;;;;15.25;9.00;;;;;;;;5062508;28;61918;-84
2023/04/29 04:19:26;;;;;;;;;13.50;11.25;;;;;;;;5061563;28;61833;-84
2023/04/29 04:21:51;;;;;;;;;13.25;11.75;;;;;;;;5043795;28;61743;-83
2023/04/29 04:24:16;;;;;;;;;9.25;6.00;;;;;;;;5053675;28;62033;-84
2023/04/29 04:26:41;;;;;;;;;10.25;7.50;;;;;;;;5060093;28;62236;-83
2023/04/29 04:29:07;;;;;;;;;12.50;9.75;;;;;;;;5061259;28;61931;-84
2023/04/29 04:31:32;;;;;;;;;10.25;9.25;;;;;;;;5062114;28;61894;-83
2023/04/29 04:33:58;;;;;;;;;13.00;11.00;;;;;;;;5061841;28;62008;-84
2023/04/29 04:36:23;;;;;;;;;9.75;9.75;;;;;;;;5062403;28;61945;-84
2023/04/29 04:38:49;;;;;;;;;11.50;7.25;;;;;;;;5060701;28;61848;-84
2023/04/29 04:41:14;;;;;;;;;8.75;8.50;;;;;;;;5060573;28;61877;-84
2023/04/29 04:43:40;;;;;;;;;6.50;6.50;;;;;;;;5061228;28;61679;-84
2023/04/29 04:46:12;;;;;;;;;9.00;8.75;;;;;;;;5061953;28;61722;-83
2023/04/29 04:48:37;;;;;;;;;15.25;12.00;;;;;;;;5076722;28;63646;-83
2023/04/29 04:51:09;;;;;;;;;12.00;10.75;;;;;;;;5060782;28;61877;-84
2023/04/29 04:53:35;;;;;;;;;13.75;10.50;;;;;;;;5061316;28;61818;-84
2023/04/29 04:56:01;;;;;;;;;12.75;9.75;;;;;;;;5061629;28;61775;-83
2023/04/29 04:58:26;;;;;;;;;12.50;8.50;;;;;;;;5060635;28;61962;-84
2023/04/29 05:00:51;;;;;;;;;14.50;11.75;;;;;;;;5059939;28;62233;-84
2023/04/29 05:03:16;;;;;;;;;12.50;9.75;;;;;;;;5061294;28;61737;-84
2023/04/29 05:05:42;;;;;;;;;9.75;8.25;;;;;;;;5060663;28;61803;-84
2023/04/29 05:08:07;;;;;;;;;14.50;9.00;;;;;;;;5060698;28;61798;-84
2023/04/29 05:10:35;;;;;;;;;15.00;10.50;;;;;;;;5061579;28;61918;-84
2023/04/29 05:13:00;;;;;;;;;11.00;9.50;;;;;;;;5060870;28;62145;-84
2023/04/29 05:15:26;;;;;;;;;15.50;9.25;;;;;;;;5061863;28;61884;-84
2023/04/29 05:17:51;;;;;;;;;10.75;9.00;;;;;;;;5060464;28;62706;-84
2023/04/29 05:20:16;;;;;;;;;16.50;11.00;;;;;;;;5061320;28;61786;-84
2023/04/29 05:22:42;;;;;;;;;11.50;10.50;;;;;;;;5058935;28;61992;-83
2023/04/29 05:25:07;;;;;;;;;13.25;11.00;;;;;;;;5052692;28;61775;-84
2023/04/29 05:27:32;;;;;;;;;16.00;12.25;;;;;;;;5061908;28;62055;-84
2023/04/29 05:29:57;;;;;;;;;8.75;8.75;;;;;;;;5062971;28;62132;-84
2023/04/29 05:32:23;;;;;;;;;11.00;9.00;;;;;;;;5063897;28;61907;-81
2023/04/29 05:34:48;;;;;;;;;12.75;10.00;;;;;;;;5064829;28;61797;-81
2023/04/29 05:37:14;;;;;;;;;10.75;8.75;;;;;;;;5063787;28;62970;-82
2023/04/29 05:39:39;;;;;;;;;12.00;10.25;;;;;;;;5079735;28;62057;-81
2023/04/29 05:42:04;;;;;;;;;11.75;9.75;;;;;;;;5063563;28;61905;-81
2023/04/29 05:44:29;;;;;;;;;10.25;10.25;;;;;;;;5064908;28;61984;-81
2023/04/29 05:46:55;;;;;;;;;17.50;8.25;;;;;;;;5052762;28;64820;-82
2023/04/29 05:49:20;;;;;;;;;9.50;8.00;;;;;;;;5044052;28;61985;-84
2023/04/29 05:51:45;;;;;;;;;12.25;9.00;;;;;;;;5060483;28;61969;-83
2023/04/29 05:54:10;;;;;;;;;13.25;10.00;;;;;;;;5062491;28;61965;-84
2023/04/29 05:56:36;;;;;;;;;12.00;10.50;;;;;;;;5063066;28;62876;-82
2023/04/29 05:59:01;;;;;;;;;15.25;12.00;;;;;;;;5062860;28;62374;-83
2023/04/29 06:01:26;;;;;;;;;13.75;9.50;;;;;;;;5064217;28;62134;-84
2023/04/29 06:03:51;;;;;;;;;11.50;11.00;;;;;;;;5064339;28;61852;-83
2023/04/29 06:06:17;;;;;;;;;18.75;11.50;;;;;;;;5062059;28;63939;-83
2023/04/29 06:08:42;;;;;;;;;12.25;8.25;;;;;;;;5062606;28;62119;-87
2023/04/29 06:11:07;;;;;;;;;12.25;8.00;;;;;;;;5043905;28;61840;-84
2023/04/29 06:13:33;;;;;;;;;11.50;9.00;;;;;;;;5043686;28;62686;-84
2023/04/29 06:15:58;;;;;;;;;8.25;8.25;;;;;;;;5077254;28;63975;-83
2023/04/29 06:18:23;;;;;;;;;12.25;6.00;;;;;;;;5063639;28;61875;-87
2023/04/29 06:20:48;;;;;;;;;6.75;6.75;;;;;;;;5062557;28;61921;-86
2023/04/29 06:23:14;;;;;;;;;15.00;9.25;;;;;;;;5061782;28;62226;-83
2023/04/29 06:25:39;;;;;;;;;10.25;9.25;;;;;;;;5062993;28;61868;-84
2023/04/29 06:28:04;;;;;;;;;14.25;9.00;;;;;;;;5044378;28;62012;-85
2023/04/29 06:30:30;;;;;;;;;16.50;9.75;;;;;;;;5041969;28;61884;-84
2023/04/29 06:32:55;;;;;;;;;7.75;7.75;;;;;;;;5058696;28;61828;-84
2023/04/29 06:35:20;;;;;;;;;8.75;8.00;;;;;;;;5062828;28;62776;-85
2023/04/29 06:37:46;;;;;;;;;10.75;8.00;;;;;;;;5063353;28;61986;-83
2023/04/29 06:40:12;;;;;;;;;13.50;12.00;;;;;;;;5063185;28;61941;-85
2023/04/29 06:42:37;;;;;;;;;9.75;9.00;;;;;;;;5063384;28;61927;-85
2023/04/29 06:45:03;;;;;;;;;10.75;8.25;;;;;;;;5062714;28;62797;-85
2023/04/29 06:47:29;;;;;;;;;16.25;10.00;;;;;;;;5062848;28;61706;-86
2023/04/29 06:49:54;;;;;;;;;13.00;8.00;;;;;;;;5062957;28;61949;-83
2023/04/29 06:52:19;;;;;;;;;14.25;12.50;;;;;;;;5063027;28;62119;-85
2023/04/29 06:54:45;;;;;;;;;16.25;12.50;;;;;;;;5077379;28;64146;-85
2023/04/29 06:57:10;;;;;;;;;16.00;13.00;;;;;;;;5062622;28;61873;-84
2023/04/29 06:59:35;;;;;;;;;24.75;14.25;;;;;;;;5062668;28;61697;-84
2023/04/29 07:02:01;;;;;;;;;23.50;17.00;;;;;;;;5062968;28;61752;-82
2023/04/29 07:04:26;;;;;;;;;13.50;12.25;;;;;;;;5078231;28;64869;-84
2023/04/29 07:06:52;;;;;;;;;20.75;14.25;;;;;;;;5062968;28;61774;-84
2023/04/29 07:09:18;;;;;;;;;17.00;15.25;;;;;;;;5078229;28;61939;-84
2023/04/29 07:11:43;;;;;;;;;26.00;20.50;;;;;;;;5062822;28;61921;-83
2023/04/29 07:14:08;;;;;;;;;24.75;20.25;;;;;;;;5061176;28;64745;-83
2023/04/29 07:16:33;;;;;;;;;23.75;21.50;;;;;;;;5063194;28;61723;-84
2023/04/29 07:18:59;;;;;;;;;25.00;17.50;;;;;;;;5061685;28;61810;-84
2023/04/29 07:21:24;;;;;;;;;24.00;20.00;;;;;;;;5063216;28;61785;-84
2023/04/29 07:23:49;;;;;;;;;27.25;15.25;;;;;;;;5061319;28;63062;-84
2023/04/29 07:26:15;;;;;;;;;22.25;17.00;;;;;;;;5063089;28;61964;-84
2023/04/29 07:28:41;;;;;;;;;25.25;16.25;;;;;;;;5062391;28;61780;-84
2023/04/29 07:31:07;;;;;;;;;21.75;16.00;;;;;;;;5062596;28;61731;-86
2023/04/29 07:33:32;;;;;;;;;26.75;21.25;;;;;;;;5050590;28;64932;-88
2023/04/29 07:35:58;;;;;;;;;22.00;17.75;;;;;;;;5088651;28;45397;-88
2023/04/29 07:38:23;;;;;;;;;28.25;22.75;;;;;;;;5101328;28;8810;-83
2023/04/29 07:40:48;;;;;;;;;23.25;18.75;;;;;;;;5090177;28;8804;-82
2023/04/29 07:43:13;;;;;;;;;23.25;18.25;;;;;;;;5102582;28;8801;-82
2023/04/29 07:45:40;;;;;;;;;25.25;22.25;;;;;;;;5091441;28;8856;-86
2023/04/29 07:48:05;;;;;;;;;26.75;19.25;;;;;;;;5097182;28;8786;-85
2023/04/29 07:50:33;;;;;;;;;26.75;20.75;;;;;;;;5096519;28;8837;-87
2023/04/29 07:53:00;;;;;;;;;27.00;22.25;;;;;;;;5099846;28;10261;-84
2023/04/29 07:55:26;;;;;;;;;29.00;22.00;;;;;;;;5091868;28;11496;-85
2023/04/29 07:57:51;;;;;;;;;33.75;23.75;;;;;;;;5082889;28;11475;-86
2023/04/29 08:00:16;;;;;;;;;25.00;20.75;;;;;;;;5101766;28;8856;-86
2023/04/29 08:02:42;;;;;;;;;30.25;22.25;;;;;;;;5101877;28;9912;-86
2023/04/29 08:05:08;;;;;;;;;25.00;19.75;;;;;;;;5101687;28;8875;-87
2023/04/29 08:07:33;;;;;;;;;37.50;24.00;;;;;;;;5101265;28;8888;-86
2023/04/29 08:09:58;;;;;;;;;32.00;22.50;;;;;;;;5100515;28;8970;-88
2023/04/29 08:12:23;;;;;;;;;29.50;25.50;;;;;;;;5099965;28;10086;-89
2023/04/29 08:14:49;;;;;;;;;26.75;22.25;;;;;;;;5102921;28;8797;-89
2023/04/29 08:17:14;;;;;;;;;27.50;23.25;;;;;;;;5098665;28;61180;-86
2023/04/29 08:19:39;;;;;;;;;33.75;23.25;;;;;;;;5101087;28;8801;-86
2023/04/29 08:22:05;;;;;;;;;28.75;22.25;;;;;;;;5100226;28;9960;-85
2023/04/29 08:24:32;;;;;;;;;36.00;25.00;;;;;;;;5102561;28;9287;-87
2023/04/29 08:26:58;;;;;;;;;24.75;21.75;;;;;;;;5101491;28;8739;-87
2023/04/29 08:29:23;;;;;;;;;34.50;23.50;;;;;;;;5101744;28;11524;-85
2023/04/29 08:31:49;;;;;;;;;26.25;22.00;;;;;;;;5082094;28;8811;-82
2023/04/29 08:34:15;;;;;;;;;30.00;24.50;;;;;;;;5080955;28;8936;-81
2023/04/29 08:36:40;;;;;;;;;37.00;28.25;;;;;;;;5082644;28;11546;-81
2023/04/29 08:39:05;;;;;;;;;28.25;22.75;;;;;;;;5093297;28;9000;-81
2023/04/29 08:41:31;;;;;;;;;28.75;24.50;;;;;;;;5093843;28;9848;-82
2023/04/29 08:43:58;;;;;;;;;31.75;21.00;;;;;;;;5081945;28;8799;-86
2023/04/29 08:46:27;;;;;;;;;30.50;22.50;;;;;;;;5099225;28;11137;-88
2023/04/29 08:48:55;;;;;;;;;37.50;28.00;;;;;;;;5094643;28;11480;-87
2023/04/29 08:51:20;;;;;;;;;33.00;26.75;;;;;;;;5084518;28;11498;-86
2023/04/29 08:53:45;;;;;;;;;33.75;24.00;;;;;;;;5095390;28;11328;-85
2023/04/29 08:56:14;;;;;;;;;29.25;23.00;;;;;;;;5101550;28;8821;-84
2023/04/29 08:58:40;;;;;;;;;32.25;23.25;;;;;;;;5086329;28;8911;-85
2023/04/29 09:01:08;;;;;;;;;42.00;28.00;;;;;;;;5082559;28;11584;-85
2023/04/29 09:03:46;;;;;;;;;30.25;27.25;;;;;;;;5097815;28;42312;-85
2023/04/29 09:06:12;;;;;;;;;37.50;25.00;;;;;;;;5104335;28;10854;-85
2023/04/29 09:08:38;;;;;;;;;30.75;24.75;;;;;;;;5106041;28;11330;-86
2023/04/29 09:11:03;;;;;;;;;28.50;25.50;;;;;;;;5096647;28;8793;-86
2023/04/29 09:13:31;;;;;;;;;31.00;23.50;;;;;;;;5093112;28;11623;-86
2023/04/29 09:15:57;;;;;;;;;30.25;25.00;;;;;;;;5092394;28;8765;-86
2023/04/29 09:18:41;;;;;;;;;29.25;24.00;;;;;;;;5092450;28;11043;-87
2023/04/29 09:21:17;;;;;;;;;33.00;29.25;;;;;;;;5085434;28;8725;-87
2023/04/29 09:23:42;;;;;;;;;24.25;21.00;;;;;;;;5108814;28;11517;-87
2023/04/29 09:26:08;;;;;;;;;25.50;21.25;;;;;;;;5118378;28;11431;-82
2023/04/29 09:28:33;;;;;;;;;33.00;26.25;;;;;;;;5083777;28;8873;-87
2023/04/29 09:30:58;;;;;;;;;36.25;26.75;;;;;;;;5101220;28;9508;-87
2023/04/29 09:33:27;;;;;;;;;35.50;26.50;;;;;;;;5100337;28;9053;-86
2023/04/29 09:35:53;;;;;;;;;27.25;25.25;;;;;;;;5089348;28;8773;-86
2023/04/29 09:38:18;;;;;;;;;29.75;25.00;;;;;;;;5082566;28;10922;-86
2023/04/29 09:40:44;;;;;;;;;32.50;29.50;;;;;;;;5091259;28;10970;-86
2023/04/29 09:43:14;;;;;;;;;26.00;22.25;;;;;;;;5089638;28;8785;-86
2023/04/29 09:45:41;;;;;;;;;35.00;27.00;;;;;;;;5094694;28;8819;-86
2023/04/29 09:48:07;;;;;;;;;31.25;27.00;;;;;;;;5104741;28;11198;-87
2023/04/29 09:50:33;;;;;;;;;43.25;28.75;;;;;;;;5103130;28;11434;-87
2023/04/29 09:52:59;;;;;;;;;29.00;23.50;;;;;;;;5103115;28;11513;-87
2023/04/29 09:55:25;;;;;;;;;33.00;24.50;;;;;;;;5104964;28;8770;-87
2023/04/29 09:57:50;;;;;;;;;32.50;24.25;;;;;;;;5102811;28;8910;-86
2023/04/29 10:00:16;;;;;;;;;33.75;26.50;;;;;;;;5104837;28;11494;-87
2023/04/29 10:02:45;;;;;;;;;44.50;28.75;;;;;;;;5097758;28;8792;-87
2023/04/29 10:05:11;;;;;;;;;40.75;30.25;;;;;;;;5084708;28;8721;-87
2023/04/29 10:07:38;;;;;;;;;23.00;20.00;;;;;;;;5089156;28;11478;-86
2023/04/29 10:10:05;;;;;;;;;26.25;21.25;;;;;;;;5103257;28;10103;-87
2023/04/29 10:12:32;;;;;;;;;23.00;23.00;;;;;;;;5102200;28;10984;-86
2023/04/29 10:15:09;;;;;;;;;31.50;20.75;;;;;;;;5104614;28;10978;-87
2023/04/29 10:17:37;;;;;;;;;26.00;21.00;;;;;;;;5102824;28;10846;-86
2023/04/29 10:20:06;;;;;;;;;29.50;22.75;;;;;;;;5104125;28;10942;-86
2023/04/29 10:22:39;;;;;;;;;25.75;20.25;;;;;;;;5102570;28;10614;-87
2023/04/29 10:25:05;;;;;;;;;25.75;22.75;;;;;;;;5102637;28;10944;-87
2023/04/29 10:27:32;;;;;;;;;31.25;22.25;;;;;;;;5101818;28;10849;-84
2023/04/29 10:29:59;;;;;;;;;25.25;21.00;;;;;;;;5087580;28;11031;-87
2023/04/29 10:32:26;;;;;;;;;25.00;20.25;;;;;;;;5081175;28;10791;-86
2023/04/29 10:34:52;;;;;;;;;27.00;20.75;;;;;;;;5083588;28;10890;-85
2023/04/29 10:37:18;;;;;;;;;25.00;17.00;;;;;;;;5082784;28;10925;-87
2023/04/29 10:39:53;;;;;;;;;19.25;18.50;;;;;;;;5097686;28;8833;-87
2023/04/29 10:42:53;;;;;;;;;22.50;17.75;;;;;;;;5102659;28;8873;-88
2023/04/29 10:45:20;;;;;;;;;27.50;16.50;;;;;;;;5021621;28;10546;-87
2023/04/29 10:48:01;;;;;;;;;21.50;20.25;;;;;;;;5021828;28;10423;-88
2023/04/29 10:50:49;;;;;;;;;18.75;17.75;;;;;;;;5001871;28;11067;-86
2023/04/29 10:53:19;;;;;;;;;29.75;18.25;;;;;;;;4989588;28;10821;-87
2023/04/29 10:55:52;;;;;;;;;21.25;14.00;;;;;;;;5020457;28;10882;-87
2023/04/29 10:58:33;;;;;;;;;25.50;19.50;;;;;;;;5020294;28;10504;-89
2023/04/29 11:00:59;;;;;;;;;19.00;16.25;;;;;;;;5020598;28;10862;-87
2023/04/29 11:03:43;;;;;;;;;20.75;17.00;;;;;;;;5023790;28;10400;-86
2023/04/29 11:06:08;;;;;;;;;21.50;16.25;;;;;;;;5026192;28;8795;-86
2023/04/29 11:08:38;;;;;;;;;33.75;15.75;;;;;;;;5040766;28;10606;-86
2023/04/29 11:11:03;;;;;;;;;19.75;16.50;;;;;;;;5041068;28;8818;-87
2023/04/29 11:13:30;;;;;;;;;22.50;18.00;;;;;;;;5010797;28;10650;-87
2023/04/29 11:16:05;;;;;;;;;21.25;17.75;;;;;;;;5004325;28;8779;-88
2023/04/29 11:18:31;;;;;;;;;16.00;13.00;;;;;;;;5029574;28;10624;-86
2023/04/29 11:21:05;;;;;;;;;19.50;13.00;;;;;;;;5097898;28;10447;-85
2023/04/29 11:23:41;;;;;;;;;17.25;14.25;;;;;;;;5094118;28;8754;-86
2023/04/29 11:26:06;;;;;;;;;17.25;14.75;;;;;;;;5087402;28;10404;-87
2023/04/29 11:28:32;;;;;;;;;16.00;13.25;;;;;;;;5085385;28;10198;-86
2023/04/29 11:30:57;;;;;;;;;22.50;18.00;;;;;;;;5101848;28;10090;-86
2023/04/29 11:33:23;;;;;;;;;18.75;16.00;;;;;;;;5092757;28;8825;-86
2023/04/29 11:35:48;;;;;;;;;20.50;16.75;;;;;;;;5092351;28;8794;-85
2023/04/29 11:38:14;;;;;;;;;21.00;16.25;;;;;;;;5081871;28;8824;-86
2023/04/29 11:40:49;;;;;;;;;18.75;14.00;;;;;;;;5097694;28;9888;-87
2023/04/29 11:43:18;;;;;;;;;20.50;18.00;;;;;;;;5101034;28;8864;-83
2023/04/29 11:45:45;;;;;;;;;18.75;15.25;;;;;;;;5101476;28;10100;-88
2023/04/29 11:48:16;;;;;;;;;17.25;16.25;;;;;;;;5102054;28;10168;-88
2023/04/29 11:50:41;;;;;;;;;26.25;18.75;;;;;;;;5101525;28;10323;-87
2023/04/29 11:53:07;;;;;;;;;17.75;13.75;;;;;;;;5086408;28;10137;-87
2023/04/29 11:55:33;;;;;;;;;16.25;13.75;;;;;;;;5087669;28;8827;-87
2023/04/29 11:57:58;;;;;;;;;19.75;17.25;;;;;;;;5086511;28;8794;-85
2023/04/29 12:00:24;;;;;;;;;31.75;17.25;;;;;;;;5095611;28;11275;-87
2023/04/29 12:02:49;;;;;;;;;12.50;10.00;;;;;;;;5087698;28;8810;-86
2023/04/29 12:05:15;;;;;;;;;20.25;16.00;;;;;;;;5096627;28;8904;-87
2023/04/29 12:07:40;;;;;;;;;18.50;15.00;;;;;;;;5095847;28;8797;-86
2023/04/29 12:10:09;;;;;;;;;17.00;12.75;;;;;;;;5098024;28;11103;-91
2023/04/29 12:12:35;;;;;;;;;19.25;14.50;;;;;;;;5100430;28;8722;-87
2023/04/29 12:15:02;;;;;;;;;21.50;17.00;;;;;;;;5099395;28;10214;-86
2023/04/29 12:17:28;;;;;;;;;17.50;14.00;;;;;;;;5094796;28;8850;-85
2023/04/29 12:19:53;;;;;;;;;20.50;18.75;;;;;;;;5085322;28;10304;-87
2023/04/29 12:22:19;;;;;;;;;20.00;16.00;;;;;;;;5085955;28;8855;-87
2023/04/29 12:24:45;;;;;;;;;26.50;16.25;;;;;;;;5093051;28;8899;-86
2023/04/29 12:27:11;;;;;;;;;21.75;17.00;;;;;;;;5071516;28;61826;-87
2023/04/29 12:29:37;;;;;;;;;15.25;13.50;;;;;;;;5044482;28;63663;-87
2023/04/29 12:32:02;;;;;;;;;15.25;13.75;;;;;;;;5047344;28;61814;-86
2023/04/29 12:34:28;;;;;;;;;16.00;13.25;;;;;;;;5054722;28;62275;-86
2023/04/29 12:36:54;;;;;;;;;16.75;16.00;;;;;;;;5044008;28;61818;-87
2023/04/29 12:39:20;;;;;;;;;24.00;16.00;;;;;;;;5055096;28;61799;-88
2023/04/29 12:41:45;;;;;;;;;15.00;14.50;;;;;;;;5053275;28;61800;-86
2023/04/29 12:44:10;;;;;;;;;22.75;19.25;;;;;;;;5055563;28;61805;-89
2023/04/29 12:46:37;;;;;;;;;17.50;14.25;;;;;;;;5048229;28;61830;-88
2023/04/29 12:49:03;;;;;;;;;19.75;16.75;;;;;;;;5047922;28;63587;-89
2023/04/29 12:51:30;;;;;;;;;21.25;18.00;;;;;;;;5067583;28;61858;-88
2023/04/29 12:53:56;;;;;;;;;18.50;18.25;;;;;;;;5057012;28;61999;-88
2023/04/29 12:56:21;;;;;;;;;21.25;17.75;;;;;;;;5046477;28;61767;-88
2023/04/29 12:58:46;;;;;;;;;19.00;14.00;;;;;;;;5044326;28;64120;-87
2023/04/29 13:01:12;;;;;;;;;17.00;14.00;;;;;;;;5055876;28;62198;-88
2023/04/29 13:03:38;;;;;;;;;21.50;19.25;;;;;;;;5060304;28;62091;-86
2023/04/29 13:06:04;;;;;;;;;17.00;13.75;;;;;;;;5066161;28;61758;-86
2023/04/29 13:08:30;;;;;;;;;18.75;15.50;;;;;;;;5065253;28;63622;-84
2023/04/29 13:10:55;;;;;;;;;16.00;15.00;;;;;;;;5057742;28;61964;-83
2023/04/29 13:13:21;;;;;;;;;16.67;15.00;;;;;;;;5060825;28;62040;-85
2023/04/29 13:15:46;;;;;;;;;22.67;15.00;;;;;;;;5067500;28;61742;-84
2023/04/29 13:18:11;;;;;;;;;17.33;17.00;;;;;;;;5063119;28;64813;-83
2023/04/29 13:20:37;;;;;;;;;13.33;13.33;;;;;;;;5066175;28;62019;-86
2023/04/29 13:23:02;;;;;;;;;15.00;12.67;;;;;;;;5064748;28;61802;-87
2023/04/29 13:25:27;;;;;;;;;19.33;15.33;;;;;;;;5066932;28;62114;-86
2023/04/29 13:27:53;;;;;;;;;18.33;15.00;;;;;;;;5064992;28;64430;-88
2023/04/29 13:30:18;;;;;;;;;16.33;14.00;;;;;;;;5067034;28;62037;-87
2023/04/29 13:32:43;;;;;;;;;15.33;14.00;;;;;;;;5065928;28;62126;-87
2023/04/29 13:35:08;;;;;;;;;17.67;13.00;;;;;;;;5066128;28;62040;-85
2023/04/29 13:37:36;;;;;;;;;19.33;16.33;;;;;;;;5066587;28;61965;-86
2023/04/29 13:40:03;;;;;;;;;18.67;13.33;;;;;;;;5065259;28;62158;-88
2023/04/29 13:42:28;;;;;;;;;17.67;13.00;;;;;;;;5067788;28;61908;-89
2023/04/29 13:44:56;;;;;;;;;19.33;13.33;;;;;;;;5066761;28;62178;-88
2023/04/29 13:47:21;;;;;;;;;14.75;12.50;;;;;;;;5065442;28;62789;-87
2023/04/29 13:49:46;;;;;;;;;18.00;15.00;;;;;;;;5062925;28;61992;-86
2023/04/29 13:52:12;;;;;;;;;16.67;13.00;;;;;;;;5064361;28;61973;-87
2023/04/29 13:54:37;;;;;;;;;16.00;13.67;;;;;;;;5064149;28;62492;-88
2023/04/29 13:57:04;;;;;;;;;15.00;13.67;;;;;;;;5063746;28;61892;-87
2023/04/29 13:59:33;;;;;;;;;15.33;13.33;;;;;;;;5063977;28;61880;-88
2023/04/29 14:01:58;;;;;;;;;14.67;11.67;;;;;;;;5062143;28;61844;-88
2023/04/29 14:04:25;;;;;;;;;15.00;14.33;;;;;;;;5062024;28;62190;-81
2023/04/29 14:06:50;;;;;;;;;14.00;13.00;;;;;;;;5052133;28;61931;-81
2023/04/29 14:09:17;;;;;;;;;14.33;13.67;;;;;;;;5061453;28;61795;-81
2023/04/29 14:11:42;;;;;;;;;11.33;9.33;;;;;;;;5044770;28;61718;-85
2023/04/29 14:14:08;;;;;;;;;11.33;10.00;;;;;;;;5048475;28;62041;-88
2023/04/29 14:16:33;;;;;;;;;15.67;11.00;;;;;;;;5054550;28;63555;-82
2023/04/29 14:18:58;;;;;;;;;12.00;11.00;;;;;;;;5047971;28;61857;-85
2023/04/29 14:21:23;;;;;;;;;10.67;10.67;;;;;;;;5057507;28;62068;-85